Time;durP1;ratioP1;P1;durP2;ratioP2;P2;SDS_P1;SDS_P2;PMS_P1;PMS_P2;Temp;Humidity;BMP_temperature;BMP_pressure;BME280_temperature;BME280_humidity;BME280_pressure;Samples;Min_cycle;Max_cycle;Signal;HPM_P1;HPM_P2
2022/07/09 00:00:30;;;;;;;6.80;3.10;;;;;;;17.54;59.90;100964.95;105456;1273;71629;-85
2022/07/09 00:03:06;;;;;;;5.90;3.00;;;;;;;17.42;61.00;100963.55;105645;1270;73828;-84
2022/07/09 00:05:35;;;;;;;8.30;3.30;;;;;;;17.30;61.19;100965.34;105616;1270;61068;-84
2022/07/09 00:08:05;;;;;;;5.40;2.80;;;;;;;17.18;62.30;100966.77;105655;1270;57934;-83
2022/07/09 00:10:35;;;;;;;5.00;3.00;;;;;;;17.08;62.50;100966.91;105541;1270;73765;-83
2022/07/09 00:13:03;;;;;;;4.80;3.10;;;;;;;17.03;62.94;100970.85;105528;1270;71939;-82
2022/07/09 00:15:32;;;;;;;5.10;3.20;;;;;;;16.97;62.77;100969.02;105220;1270;482623;-82
2022/07/09 00:18:01;;;;;;;4.10;2.90;;;;;;;16.92;62.99;100967.89;105553;1271;72168;-83
2022/07/09 00:20:30;;;;;;;7.10;3.80;;;;;;;16.91;62.49;100967.30;105666;1270;60582;-82
2022/07/09 00:22:59;;;;;;;5.40;3.10;;;;;;;16.98;64.13;100966.41;105523;1273;59576;-81
2022/07/09 00:25:28;;;;;;;4.70;3.40;;;;;;;17.06;63.55;100958.27;105713;1270;72681;-83
2022/07/09 00:28:00;;;;;;;5.30;3.10;;;;;;;17.09;63.83;100956.08;105879;1270;71694;-81
2022/07/09 00:30:29;;;;;;;5.10;3.40;;;;;;;17.17;63.45;100954.72;105719;1270;71414;-82
2022/07/09 00:32:59;;;;;;;6.30;3.40;;;;;;;17.17;63.39;100950.30;105952;1270;72316;-80
2022/07/09 00:35:28;;;;;;;4.40;3.30;;;;;;;17.19;63.54;100950.47;106064;1270;58871;-84
2022/07/09 00:37:57;;;;;;;7.20;3.40;;;;;;;17.14;63.66;100953.65;105794;1270;60715;-82
2022/07/09 00:40:26;;;;;;;7.00;3.50;;;;;;;17.04;63.81;100953.34;106069;1269;72492;-80
2022/07/09 00:42:56;;;;;;;7.10;3.70;;;;;;;16.98;64.41;100953.21;105623;1270;72818;-80
2022/07/09 00:45:26;;;;;;;5.80;3.40;;;;;;;16.87;64.77;100959.77;105794;1270;70957;-83
2022/07/09 00:47:56;;;;;;;6.80;3.50;;;;;;;16.78;64.88;100957.41;105745;1270;71931;-82
2022/07/09 00:50:25;;;;;;;4.60;3.30;;;;;;;16.71;65.22;100959.09;105720;1270;62186;-84
2022/07/09 00:52:53;;;;;;;9.30;3.70;;;;;;;16.68;65.56;100960.11;105639;1270;61821;-81
2022/07/09 00:55:23;;;;;;;5.10;3.80;;;;;;;16.65;65.26;100962.98;105652;1270;73189;-80
2022/07/09 00:57:52;;;;;;;4.70;3.40;;;;;;;16.67;66.20;100964.98;105617;1270;72436;-81
2022/07/09 01:00:21;;;;;;;5.30;3.50;;;;;;;16.67;65.37;100965.66;105681;1270;70323;-82
2022/07/09 01:02:50;;;;;;;6.50;4.00;;;;;;;16.67;66.58;100968.48;105801;1270;73804;-82
2022/07/09 01:05:19;;;;;;;5.30;3.40;;;;;;;16.68;65.48;100972.58;105648;1270;61854;-84
2022/07/09 01:07:48;;;;;;;7.30;3.80;;;;;;;16.65;65.19;100965.11;105813;1270;62177;-81
2022/07/09 01:10:17;;;;;;;6.50;3.80;;;;;;;16.64;66.28;100968.02;105754;1270;75000;-81
2022/07/09 01:12:45;;;;;;;7.70;3.60;;;;;;;16.58;66.33;100966.30;105581;1270;72331;-81
2022/07/09 01:15:14;;;;;;;4.30;3.70;;;;;;;16.53;66.85;100972.39;105655;1271;69432;-80
2022/07/09 01:17:43;;;;;;;7.30;3.80;;;;;;;16.47;67.15;100969.14;105543;1271;72094;-82
2022/07/09 01:20:12;;;;;;;5.70;3.60;;;;;;;16.42;66.48;100975.20;105585;1270;59654;-82
2022/07/09 01:22:41;;;;;;;9.70;3.60;;;;;;;16.37;66.95;100978.32;105730;1270;60289;-83
2022/07/09 01:25:16;;;;;;;6.30;4.30;;;;;;;16.33;66.59;100980.05;105635;1270;72539;-83
2022/07/09 01:27:46;;;;;;;7.20;4.00;;;;;;;16.27;68.18;100979.16;105521;1270;72312;-81
2022/07/09 01:30:27;;;;;;;8.40;4.10;;;;;;;16.26;67.27;100974.39;105632;1270;69677;-83
2022/07/09 01:32:56;;;;;;;6.20;3.80;;;;;;;16.23;67.97;100975.54;105621;1270;71311;-82
2022/07/09 01:35:27;;;;;;;4.90;3.80;;;;;;;16.21;68.11;100976.95;105682;1270;61335;-81
2022/07/09 01:37:56;;;;;;;5.80;4.30;;;;;;;16.19;68.09;100974.74;105553;1270;59687;-84
2022/07/09 01:40:25;;;;;;;8.70;4.30;;;;;;;16.16;68.12;100970.35;105683;1270;72031;-82
2022/07/09 01:42:54;;;;;;;8.50;4.70;;;;;;;16.18;69.28;100969.56;105564;1270;72184;-81
2022/07/09 01:45:27;;;;;;;6.60;3.90;;;;;;;16.17;69.01;100972.05;105662;1270;71066;-84
2022/07/09 01:47:56;;;;;;;5.30;3.60;;;;;;;16.15;69.56;100977.29;105518;1270;73107;-83
2022/07/09 01:50:24;;;;;;;7.50;4.00;;;;;;;16.12;69.53;100973.70;105650;1270;62033;-83
2022/07/09 01:52:53;;;;;;;5.90;4.30;;;;;;;16.11;69.76;100977.16;105594;1270;59540;-82
2022/07/09 01:55:22;;;;;;;9.10;3.90;;;;;;;16.09;69.89;100979.10;105638;1270;73421;-84
2022/07/09 01:57:53;;;;;;;7.50;4.30;;;;;;;16.05;70.01;100981.55;105645;1270;70206;-82
2022/07/09 02:00:29;;;;;;;6.00;3.90;;;;;;;16.01;70.45;100983.89;105707;1270;71130;-83
2022/07/09 02:02:58;;;;;;;6.70;4.00;;;;;;;16.01;70.61;100983.70;105888;1269;73924;-82
2022/07/09 02:05:29;;;;;;;10.00;4.40;;;;;;;16.01;69.72;100986.70;105822;1270;60067;-83
2022/07/09 02:08:00;;;;;;;;;;;;;;;15.98;70.35;100986.42;105744;1270;59650;-82
2022/07/09 02:10:30;;;;;;;5.30;4.00;;;;;;;15.97;70.47;100990.02;105929;1270;73744;-82
2022/07/09 02:12:59;;;;;;;6.90;4.10;;;;;;;15.99;70.31;100986.84;105708;1270;72344;-82
2022/07/09 02:15:28;;;;;;;8.40;3.90;;;;;;;16.02;69.34;100990.51;105699;1270;70435;-82
2022/07/09 02:17:58;;;;;;;6.00;3.90;;;;;;;16.00;69.85;100986.25;105664;1269;73792;-81
2022/07/09 02:20:27;;;;;;;6.40;4.30;;;;;;;15.91;70.33;100976.23;105813;1270;61937;-84
2022/07/09 02:22:59;;;;;;;7.10;3.80;;;;;;;15.85;70.62;100981.33;105763;1270;60608;-82
2022/07/09 02:25:34;;;;;;;8.00;4.80;;;;;;;15.85;70.02;100984.98;105549;1270;74511;-81
2022/07/09 02:28:06;;;;;;;7.60;4.50;;;;;;;15.86;70.21;100985.60;105920;1270;70873;-81
2022/07/09 02:30:42;;;;;;;6.10;4.10;;;;;;;15.86;69.95;100984.71;106843;1269;69538;-85
2022/07/09 02:33:18;;;;;;;8.10;4.60;;;;;;;15.80;70.16;100975.91;105999;1273;75356;-84
2022/07/09 02:35:46;;;;;;;6.90;4.60;;;;;;;15.84;70.33;100980.00;106110;1270;61661;-84
2022/07/09 02:38:16;;;;;;;9.50;5.10;;;;;;;15.82;70.70;100976.80;105894;1270;60691;-83
2022/07/09 02:40:45;;;;;;;10.00;4.50;;;;;;;15.76;71.76;100980.16;106214;1270;73190;-82
2022/07/09 02:43:14;;;;;;;8.90;5.00;;;;;;;15.82;71.17;100982.21;106880;1270;71589;-82
2022/07/09 02:45:43;;;;;;;10.10;4.80;;;;;;;15.85;71.01;100983.67;106960;1270;68410;-83
2022/07/09 02:48:12;;;;;;;5.60;4.20;;;;;;;15.88;70.89;100987.17;107454;1269;73192;-84
2022/07/09 02:50:42;;;;;;;6.30;4.30;;;;;;;15.89;71.08;100986.41;107508;1268;60777;-83
2022/07/09 02:53:20;;;;;;;10.10;4.50;;;;;;;15.88;71.40;100983.28;107162;1270;59056;-83
2022/07/09 02:55:49;;;;;;;6.50;4.30;;;;;;;15.96;71.04;100979.95;106752;1270;74789;-84
2022/07/09 02:58:19;;;;;;;7.20;4.30;;;;;;;16.03;70.63;100981.80;106415;1270;70985;-84
2022/07/09 03:00:49;;;;;;;10.20;4.50;;;;;;;16.08;70.59;100985.68;106372;1270;68399;-85
2022/07/09 03:03:19;;;;;;;6.10;4.00;;;;;;;16.20;70.29;100988.10;105997;1270;73085;-83
2022/07/09 03:05:48;;;;;;;6.20;4.00;;;;;;;16.25;70.08;100986.77;105771;1270;59623;-83
2022/07/09 03:08:21;;;;;;;6.50;3.80;;;;;;;16.25;70.32;100988.21;105683;1273;60672;-83
2022/07/09 03:10:50;;;;;;;6.50;4.40;;;;;;;16.26;70.32;100990.91;105724;1270;72930;-82
2022/07/09 03:13:19;;;;;;;6.90;4.40;;;;;;;16.26;70.33;100991.77;105603;1270;72404;-83
2022/07/09 03:15:49;;;;;;;8.60;4.40;;;;;;;16.31;69.77;100990.27;105496;1272;70861;-84
2022/07/09 03:18:19;;;;;;;7.60;4.10;;;;;;;16.33;69.66;100986.95;105725;1270;72770;-84
2022/07/09 03:20:58;;;;;;;6.00;4.30;;;;;;;16.36;69.95;100985.77;105835;1270;61975;-83
2022/07/09 03:23:27;;;;;;;6.70;5.00;;;;;;;16.42;69.94;100985.38;105976;1270;59504;-84
2022/07/09 03:25:56;;;;;;;6.60;4.40;;;;;;;16.51;69.48;100979.59;105904;1270;71806;-84
2022/07/09 03:28:26;;;;;;;5.60;4.40;;;;;;;16.60;68.79;100975.05;105748;1270;69569;-84
2022/07/09 03:30:56;;;;;;;7.60;4.00;;;;;;;16.73;68.95;100977.48;105824;1270;68029;-84
2022/07/09 03:33:27;;;;;;;8.40;4.30;;;;;;;16.82;68.96;100977.44;105966;1270;72459;-83
2022/07/09 03:35:58;;;;;;;6.40;4.30;;;;;;;16.92;68.75;100976.88;106202;1268;60154;-83
2022/07/09 03:38:27;;;;;;;5.80;3.70;;;;;;;17.01;68.61;100977.02;106007;1270;60559;-84
2022/07/09 03:40:57;;;;;;;6.10;4.10;;;;;;;17.10;68.03;100972.48;105730;1270;72393;-83
2022/07/09 03:43:27;;;;;;;9.20;3.90;;;;;;;17.19;67.63;100981.30;105866;1270;72498;-82
2022/07/09 03:46:00;;;;;;;7.30;3.90;;;;;;;17.24;67.39;100978.16;106286;1270;69149;-82
2022/07/09 03:48:29;;;;;;;6.40;4.20;;;;;;;17.28;67.29;100979.09;106056;1268;63703;-84
2022/07/09 03:50:58;;;;;;;6.20;3.90;;;;;;;17.32;66.95;100981.25;105902;1270;59003;-83
2022/07/09 03:53:28;;;;;;;7.80;4.00;;;;;;;17.40;66.85;100980.70;106326;1270;61697;-83
2022/07/09 03:55:59;;;;;;;7.50;4.40;;;;;;;17.48;66.88;100981.48;106193;1268;75032;-83
2022/07/09 03:58:28;;;;;;;8.80;3.80;;;;;;;17.56;66.46;100983.42;105854;1268;70282;-85
2022/07/09 04:00:58;;;;;;;5.30;3.90;;;;;;;17.61;66.12;100981.63;105810;1268;61010;-81
2022/07/09 04:03:27;;;;;;;7.10;4.40;;;;;;;17.66;65.72;100984.81;105863;1268;72024;-81
2022/07/09 04:05:56;;;;;;;6.00;4.20;;;;;;;17.67;65.67;100985.79;105887;1268;61486;-83
2022/07/09 04:08:26;;;;;;;7.40;4.00;;;;;;;17.72;65.31;100980.86;105943;1269;60986;-84
2022/07/09 04:10:57;;;;;;;6.50;4.40;;;;;;;17.72;65.33;100982.13;106030;1268;76107;-84
2022/07/09 04:13:27;;;;;;;6.80;4.10;;;;;;;17.73;65.01;100972.55;106181;1268;70567;-84
2022/07/09 04:16:07;;;;;;;5.90;4.10;;;;;;;17.73;65.25;100975.95;106291;1268;68840;-84
2022/07/09 04:18:37;;;;;;;6.40;3.80;;;;;;;17.80;65.01;100971.15;106224;1270;73306;-85
2022/07/09 04:21:08;;;;;;;5.90;4.20;;;;;;;17.89;64.57;100968.39;106230;1269;61096;-84
2022/07/09 04:23:39;;;;;;;6.90;4.20;;;;;;;17.89;64.38;100972.38;105991;1268;59499;-85
2022/07/09 04:26:09;;;;;;;4.90;4.00;;;;;;;17.89;64.44;100968.35;106423;1270;72705;-83
2022/07/09 04:28:43;;;;;;;7.00;4.20;;;;;;;17.88;64.38;100972.86;106220;1269;72095;-83
2022/07/09 04:31:13;;;;;;;6.90;4.40;;;;;;;17.90;64.37;100971.45;106315;1270;61036;-84
2022/07/09 04:33:44;;;;;;;7.00;4.50;;;;;;;17.91;64.25;100973.08;106085;1270;62601;-84
2022/07/09 04:36:16;;;;;;;7.80;4.50;;;;;;;17.93;64.24;100975.71;106156;1270;61467;-84
2022/07/09 04:38:48;;;;;;;9.20;4.60;;;;;;;18.01;63.95;100981.20;106038;1270;59540;-84
2022/07/09 04:41:18;;;;;;;6.60;4.40;;;;;;;18.06;63.78;100979.52;106267;1270;75665;-85
2022/07/09 04:43:49;;;;;;;8.10;4.10;;;;;;;18.10;63.86;100978.64;106215;1270;71778;-84
2022/07/09 04:46:19;;;;;;;5.90;4.40;;;;;;;18.18;63.45;100980.28;106144;1271;60681;-84
2022/07/09 04:48:52;;;;;;;7.10;4.30;;;;;;;18.26;63.16;100982.23;105859;1270;73988;-85
2022/07/09 04:51:22;;;;;;;7.50;4.40;;;;;;;18.32;62.71;100980.08;105938;1271;59623;-83
2022/07/09 04:53:52;;;;;;;8.00;4.70;;;;;;;18.32;62.99;100986.42;105812;1270;61498;-83
2022/07/09 04:56:23;;;;;;;7.30;4.60;;;;;;;18.38;62.70;100984.79;106166;1267;76051;-85
2022/07/09 04:58:53;;;;;;;8.30;4.60;;;;;;;18.41;62.65;100987.09;105986;1270;62117;-84
2022/07/09 05:01:23;;;;;;;6.90;4.40;;;;;;;18.43;62.72;100983.04;105938;1270;60113;-84
2022/07/09 05:03:55;;;;;;;5.40;4.10;;;;;;;18.49;62.72;100980.67;105830;1270;64334;-83
2022/07/09 05:06:35;;;;;;;5.00;4.10;;;;;;;18.60;62.20;100980.80;105999;1270;60231;-85
2022/07/09 05:09:05;;;;;;;6.50;4.70;;;;;;;18.67;61.83;100972.64;106213;1268;61327;-85
2022/07/09 05:11:39;;;;;;;6.70;4.40;;;;;;;18.74;61.75;100974.36;106109;1270;75514;-84
2022/07/09 05:14:13;;;;;;;9.10;5.10;;;;;;;18.88;61.59;100975.59;105975;1269;73807;-84
2022/07/09 05:16:44;;;;;;;10.10;4.70;;;;;;;18.96;61.23;100974.73;105676;1270;71297;-83
2022/07/09 05:19:15;;;;;;;;;;;;;;;19.06;60.95;100980.40;105922;1270;74405;-85
2022/07/09 05:21:57;;;;;;;5.90;4.70;;;;;;;19.13;60.89;100976.69;105994;1270;59728;-85
2022/07/09 05:24:28;;;;;;;6.30;4.30;;;;;;;19.26;60.21;100975.84;105947;1270;57983;-85
2022/07/09 05:26:57;;;;;;;8.90;5.10;;;;;;;19.28;60.11;100971.80;106374;1269;73703;-85
2022/07/09 05:29:27;;;;;;;7.90;4.50;;;;;;;19.30;60.22;100966.41;106180;1270;61192;-83
2022/07/09 05:32:02;;;;;;;6.40;5.00;;;;;;;19.39;59.98;100966.08;106525;1270;59314;-84
2022/07/09 05:34:38;;;;;;;6.50;4.70;;;;;;;19.50;59.32;100963.48;106472;1270;73901;-85
2022/07/09 05:37:30;;;;;;;;;;;;;;;;;;;;;
2022/07/09 05:40:08;;;;;;;8.20;4.80;;;;;;;19.56;58.95;100967.58;106219;1269;61788;-84
2022/07/09 05:42:39;;;;;;;6.70;4.60;;;;;;;19.71;58.10;100958.04;106212;1270;75043;-84
2022/07/09 05:45:10;;;;;;;9.50;4.90;;;;;;;19.85;57.88;100961.14;106461;1270;62100;-86
2022/07/09 05:47:44;;;;;;;10.10;4.70;;;;;;;19.93;57.52;100958.00;106314;1270;70748;-84
2022/07/09 05:50:50;;;;;;;8.70;4.50;;;;;;;19.83;57.20;100941.77;106664;1270;74112;-84
2022/07/09 05:53:21;;;;;;;6.90;4.30;;;;;;;20.06;56.86;100953.05;106780;1270;61079;-85
2022/07/09 05:56:11;;;;;;;8.20;4.50;;;;;;;20.09;56.93;100960.77;106641;1268;62132;-84
2022/07/09 05:58:48;;;;;;;9.10;5.90;;;;;;;20.18;56.58;100960.20;106993;1269;65405;-84
2022/07/09 06:01:26;;;;;;;6.30;4.20;;;;;;;20.33;56.72;100961.57;107002;1269;72537;-85
2022/07/09 06:03:59;;;;;;;;;;;;;;;20.43;56.33;100950.98;107396;1269;59760;-85
2022/07/09 06:07:31;;;;;;;9.00;4.40;;;;;;;20.49;55.99;100951.92;107592;1272;73133;-80
2022/07/09 06:10:17;;;;;;;8.20;3.80;;;;;;;20.55;56.00;100948.85;107267;1276;60244;-83
2022/07/09 06:12:48;;;;;;;9.40;4.30;;;;;;;20.59;55.63;100960.69;107020;1276;61313;-87
2022/07/09 06:15:47;;;;;;;7.90;4.00;;;;;;;20.61;55.28;100956.93;106755;1276;72384;-86
2022/07/09 06:18:16;;;;;;;10.30;4.30;;;;;;;20.77;54.64;100958.71;105312;1276;71589;-74
2022/07/09 06:20:45;;;;;;;7.50;4.60;;;;;;;20.77;54.74;100958.55;105329;1276;62402;-73
2022/07/09 06:23:14;;;;;;;6.30;4.40;;;;;;;20.77;54.62;100955.09;105298;1276;62502;-74
2022/07/09 06:25:43;;;;;;;8.40;4.10;;;;;;;20.83;54.30;100961.75;105330;1276;59568;-73
2022/07/09 06:28:12;;;;;;;5.00;3.90;;;;;;;20.88;54.25;100949.85;105421;1276;61911;-74
2022/07/09 06:30:41;;;;;;;8.60;4.50;;;;;;;20.91;54.39;100945.41;105413;1277;64291;-76
2022/07/09 06:33:10;;;;;;;6.70;4.20;;;;;;;21.05;54.42;100954.98;105450;1276;61795;-75
2022/07/09 06:35:39;;;;;;;10.30;4.30;;;;;;;21.20;53.76;100948.29;105272;1276;70761;-72
2022/07/09 06:38:07;;;;;;;7.30;3.80;;;;;;;21.25;53.57;100948.27;105253;1276;74681;-73
2022/07/09 06:40:36;;;;;;;4.50;3.70;;;;;;;21.27;53.44;100939.73;105179;1277;59614;-74
2022/07/09 06:43:05;;;;;;;9.20;4.30;;;;;;;21.28;53.45;100933.75;105289;1276;57891;-74
2022/07/09 06:45:37;;;;;;;9.40;4.00;;;;;;;21.38;53.37;100931.79;105370;1276;63101;-74
2022/07/09 06:48:06;;;;;;;6.00;4.20;;;;;;;21.50;52.60;100930.08;105392;1274;62106;-72
2022/07/09 06:50:35;;;;;;;7.30;4.00;;;;;;;21.57;52.21;100936.35;105314;1276;59352;-73
2022/07/09 06:53:04;;;;;;;5.20;3.60;;;;;;;21.54;52.01;100933.15;105218;1276;74067;-75
2022/07/09 06:55:33;;;;;;;6.00;4.10;;;;;;;21.70;51.73;100927.70;105398;1276;60416;-73
2022/07/09 06:58:01;;;;;;;5.50;3.90;;;;;;;21.87;51.38;100926.94;105455;1275;59087;-72
2022/07/09 07:00:30;;;;;;;6.70;4.20;;;;;;;22.00;51.20;100928.88;105428;1270;64025;-71
2022/07/09 07:02:59;;;;;;;9.90;3.50;;;;;;;22.08;50.78;100929.29;105709;1270;62673;-74
2022/07/09 07:05:28;;;;;;;5.50;4.00;;;;;;;22.19;50.11;100926.60;105750;1270;59331;-74
2022/07/09 07:07:57;;;;;;;5.90;3.70;;;;;;;22.24;50.05;100922.83;105698;1269;62595;-75
2022/07/09 07:10:26;;;;;;;7.20;3.60;;;;;;;22.29;49.82;100926.50;105799;1268;59628;-74
2022/07/09 07:12:55;;;;;;;7.60;3.80;;;;;;;22.21;49.98;100917.91;105966;1268;59070;-74
2022/07/09 07:15:25;;;;;;;4.50;3.60;;;;;;;22.24;49.83;100924.95;105862;1268;74312;-77
2022/07/09 07:17:53;;;;;;;6.20;3.80;;;;;;;22.31;49.98;100920.98;105869;1268;71847;-76
2022/07/09 07:20:26;;;;;;;7.40;4.20;;;;;;;22.44;50.25;100924.55;105794;1268;61016;-74
2022/07/09 07:22:55;;;;;;;16.90;4.50;;;;;;;22.52;50.10;100928.35;105624;1268;63768;-72
2022/07/09 07:25:24;;;;;;;5.80;3.30;;;;;;;22.56;50.29;100921.35;105764;1270;59764;-74
2022/07/09 07:27:53;;;;;;;7.00;3.50;;;;;;;22.59;50.16;100923.77;105787;1269;60519;-74
2022/07/09 07:30:21;;;;;;;8.70;3.70;;;;;;;22.59;50.03;100921.65;105604;1270;74940;-75
2022/07/09 07:32:50;;;;;;;6.60;3.40;;;;;;;22.68;49.72;100921.31;105833;1270;63132;-75
2022/07/09 07:35:19;;;;;;;6.90;3.80;;;;;;;22.72;49.30;100929.23;105823;1270;60011;-74
2022/07/09 07:37:48;;;;;;;6.50;3.30;;;;;;;22.73;49.32;100931.54;105773;1268;63427;-74
2022/07/09 07:40:17;;;;;;;6.20;3.60;;;;;;;22.88;48.78;100930.65;105731;1270;59690;-74
2022/07/09 07:42:46;;;;;;;5.60;3.60;;;;;;;22.96;48.14;100935.08;105517;1268;60831;-75
2022/07/09 07:45:14;;;;;;;9.20;3.70;;;;;;;23.10;48.03;100931.85;105679;1265;64408;-74
2022/07/09 07:47:43;;;;;;;6.30;3.60;;;;;;;23.21;47.72;100927.31;105518;1270;61015;-76
2022/07/09 07:50:12;;;;;;;5.80;3.40;;;;;;;23.18;47.58;100928.02;105577;1269;70638;-74
2022/07/09 07:52:40;;;;;;;5.20;3.80;;;;;;;23.39;46.74;100931.58;105557;1270;75510;-75
2022/07/09 07:55:16;;;;;;;13.10;3.40;;;;;;;23.49;46.75;100923.87;105490;1270;61027;-75
2022/07/09 07:57:44;;;;;;;5.00;3.30;;;;;;;23.59;46.45;100921.64;105454;1270;61755;-74
2022/07/09 08:00:13;;;;;;;6.80;4.00;;;;;;;23.67;46.36;100920.87;105526;1270;64987;-74
2022/07/09 08:02:44;;;;;;;5.30;3.80;;;;;;;23.92;45.82;100921.67;105677;1270;70756;-74
2022/07/09 08:05:13;;;;;;;6.20;3.60;;;;;;;24.02;45.84;100924.88;105540;1270;70785;-74
2022/07/09 08:07:42;;;;;;;5.60;3.50;;;;;;;24.10;45.24;100923.52;105693;1270;74567;-75
2022/07/09 08:10:11;;;;;;;5.00;3.20;;;;;;;24.13;45.14;100916.90;105494;1270;62016;-73
2022/07/09 08:12:40;;;;;;;6.50;3.20;;;;;;;24.13;45.01;100913.66;105549;1270;61754;-74
2022/07/09 08:15:10;;;;;;;4.00;2.80;;;;;;;24.30;44.70;100914.65;105506;1270;65683;-77
2022/07/09 08:17:39;;;;;;;3.40;2.80;;;;;;;24.36;44.02;100908.48;105669;1270;72355;-74
2022/07/09 08:20:09;;;;;;;7.60;2.80;;;;;;;24.19;44.43;100904.21;105680;1269;71908;-74
2022/07/09 08:22:38;;;;;;;6.80;3.20;;;;;;;24.16;44.34;100906.12;105703;1269;74542;-76
2022/07/09 08:25:07;;;;;;;4.80;3.00;;;;;;;24.07;44.09;100902.37;105816;1270;61839;-75
2022/07/09 08:27:42;;;;;;;11.70;3.40;;;;;;;24.20;44.24;100896.22;105786;1268;61456;-74
2022/07/09 08:30:11;;;;;;;4.70;3.30;;;;;;;24.34;43.91;100897.52;105789;1267;74746;-76
2022/07/09 08:32:39;;;;;;;5.00;2.90;;;;;;;24.42;43.22;100891.08;105554;1269;72759;-77
2022/07/09 08:35:08;;;;;;;6.50;2.70;;;;;;;24.64;43.02;100880.50;105640;1270;60718;-75
2022/07/09 08:37:37;;;;;;;5.00;2.90;;;;;;;24.80;42.90;100888.17;105527;1271;63406;-75
2022/07/09 08:40:07;;;;;;;7.20;3.40;;;;;;;25.06;41.70;100881.00;105742;1270;60110;-74
2022/07/09 08:42:36;;;;;;;3.80;3.10;;;;;;;25.11;41.24;100879.45;105653;1270;59645;-74
2022/07/09 08:45:12;;;;;;;5.20;3.00;;;;;;;25.30;41.20;100872.16;105748;1270;63756;-75
2022/07/09 08:47:42;;;;;;;5.80;2.70;;;;;;;25.67;41.01;100871.63;105649;1270;71777;-74
2022/07/09 08:50:11;;;;;;;7.00;3.00;;;;;;;25.75;39.38;100872.50;105670;1270;70993;-73
2022/07/09 08:52:41;;;;;;;6.30;2.90;;;;;;;25.73;39.41;100869.09;105600;1270;74398;-75
2022/07/09 08:55:10;;;;;;;7.60;2.80;;;;;;;25.45;39.68;100873.46;105573;1270;57884;-74
2022/07/09 08:57:39;;;;;;;5.20;2.80;;;;;;;25.37;39.93;100871.83;105678;1269;59479;-75
2022/07/09 09:00:08;;;;;;;5.90;2.80;;;;;;;25.65;39.26;100863.80;105708;1270;74639;-75
2022/07/09 09:02:38;;;;;;;6.50;2.90;;;;;;;25.77;38.65;100859.59;105602;1270;70422;-74
2022/07/09 09:05:15;;;;;;;5.60;2.80;;;;;;;25.62;38.56;100865.50;105702;1270;70682;-75
2022/07/09 09:07:46;;;;;;;7.90;2.60;;;;;;;25.47;38.66;100868.13;105671;1270;63282;-77
2022/07/09 09:10:27;;;;;;;13.10;3.30;;;;;;;25.45;38.79;100861.73;105695;1270;60552;-77
2022/07/09 09:13:01;;;;;;;4.30;2.40;;;;;;;25.46;38.53;100859.66;105612;1270;59300;-75
2022/07/09 09:15:30;;;;;;;6.80;2.60;;;;;;;25.44;38.77;100854.92;105594;1268;74867;-76
2022/07/09 09:17:58;;;;;;;4.00;2.90;;;;;;;25.45;39.22;100848.57;105655;1269;72157;-78
2022/07/09 09:20:27;;;;;;;4.40;2.70;;;;;;;25.56;38.83;100857.77;105921;1270;69496;-76
2022/07/09 09:22:59;;;;;;;7.00;2.90;;;;;;;25.63;38.49;100848.10;105834;1269;63859;-78
2022/07/09 09:25:29;;;;;;;8.50;3.10;;;;;;;25.59;38.62;100842.00;106029;1268;58338;-75
2022/07/09 09:27:59;;;;;;;3.70;2.40;;;;;;;25.70;38.47;100846.85;105930;1271;60648;-77
2022/07/09 09:30:30;;;;;;;3.60;2.50;;;;;;;25.70;38.34;100848.21;105851;1270;64492;-76
2022/07/09 09:33:02;;;;;;;3.60;2.40;;;;;;;25.74;38.09;100847.57;105889;1268;61721;-78
2022/07/09 09:35:34;;;;;;;4.90;2.70;;;;;;;25.48;38.47;100844.43;105820;1270;70982;-76
2022/07/09 09:38:03;;;;;;;7.40;2.90;;;;;;;25.75;38.39;100838.30;105816;1270;63865;-76
2022/07/09 09:40:32;;;;;;;4.40;2.60;;;;;;;25.96;37.81;100842.27;105757;1270;60302;-76
2022/07/09 09:43:03;;;;;;;4.70;3.00;;;;;;;26.24;37.58;100844.36;105755;1270;60995;-74
2022/07/09 09:45:34;;;;;;;4.00;2.60;;;;;;;26.20;37.42;100836.50;105673;1270;62987;-75
2022/07/09 09:48:05;;;;;;;4.10;2.30;;;;;;;26.35;37.08;100840.79;105753;1268;71920;-77
2022/07/09 09:50:35;;;;;;;8.60;2.70;;;;;;;26.20;37.09;100842.80;105744;1270;71283;-76
2022/07/09 09:53:10;;;;;;;7.40;3.00;;;;;;;26.13;37.35;100847.31;105872;1270;72552;-76
2022/07/09 09:55:38;;;;;;;4.80;2.50;;;;;;;26.05;37.50;100830.45;106012;1268;61293;-76
2022/07/09 09:58:09;;;;;;;9.70;2.70;;;;;;;26.17;37.42;100834.05;106026;1271;59641;-77
2022/07/09 10:00:39;;;;;;;10.00;2.80;;;;;;;26.27;37.08;100829.02;105720;1270;63866;-75
2022/07/09 10:03:07;;;;;;;3.30;2.70;;;;;;;26.43;36.77;100831.88;105861;1271;72316;-79
2022/07/09 10:05:37;;;;;;;5.10;2.80;;;;;;;26.44;37.00;100832.83;105816;1270;61057;-74
2022/07/09 10:08:06;;;;;;;4.40;2.70;;;;;;;26.54;36.74;100826.48;105718;1268;73177;-75
2022/07/09 10:10:34;;;;;;;9.40;3.10;;;;;;;26.39;37.10;100818.70;105563;1270;62488;-77
2022/07/09 10:13:03;;;;;;;9.70;3.50;;;;;;;26.46;37.02;100822.40;105747;1268;59575;-77
2022/07/09 10:15:34;;;;;;;6.40;2.50;;;;;;;26.37;37.25;100824.30;105626;1268;63042;-74
2022/07/09 10:18:11;;;;;;;5.50;2.70;;;;;;;26.38;36.95;100824.36;105704;1268;72310;-76
2022/07/09 10:20:43;;;;;;;11.80;2.90;;;;;;;26.43;36.92;100820.67;105846;1268;62302;-74
2022/07/09 10:23:23;;;;;;;7.40;2.90;;;;;;;26.39;36.84;100819.66;105746;1268;73956;-75
2022/07/09 10:25:55;;;;;;;6.90;2.80;;;;;;;26.77;36.35;100811.56;105782;1268;59528;-74
2022/07/09 10:28:27;;;;;;;7.60;2.80;;;;;;;26.88;36.49;100815.75;105639;1268;61243;-76
2022/07/09 10:31:07;;;;;;;4.40;2.60;;;;;;;27.21;35.88;100812.16;105918;1268;63842;-77
2022/07/09 10:33:48;;;;;;;6.90;3.00;;;;;;;27.49;35.53;100806.70;105974;1269;62392;-81
2022/07/09 10:36:17;;;;;;;5.30;3.10;;;;;;;27.66;35.26;100807.52;105771;1268;70076;-78
2022/07/09 10:38:55;;;;;;;7.90;2.90;;;;;;;27.67;34.99;100806.42;105783;1270;73752;-75
2022/07/09 10:41:25;;;;;;;5.60;3.20;;;;;;;27.60;34.76;100808.17;105658;1270;59599;-73
2022/07/09 10:43:53;;;;;;;4.00;2.60;;;;;;;27.94;34.54;100802.38;105600;1270;61232;-76
2022/07/09 10:46:22;;;;;;;8.00;2.80;;;;;;;28.16;33.78;100792.17;105603;1270;75212;-76
2022/07/09 10:48:51;;;;;;;3.50;2.50;;;;;;;28.61;33.33;100791.09;105732;1269;62111;-76
2022/07/09 10:51:23;;;;;;;5.80;3.10;;;;;;;28.85;32.20;100785.44;105758;1268;68664;-76
2022/07/09 10:53:52;;;;;;;3.80;2.80;;;;;;;28.64;32.55;100792.02;105641;1270;74947;-80
2022/07/09 10:56:22;;;;;;;4.40;2.80;;;;;;;28.29;33.29;100780.83;106034;1270;61370;-77
2022/07/09 10:58:51;;;;;;;4.30;2.80;;;;;;;28.23;33.39;100778.09;106012;1270;61111;-77
2022/07/09 11:01:24;;;;;;;4.40;2.60;;;;;;;27.85;33.79;100782.10;105840;1269;75008;-78
2022/07/09 11:03:55;;;;;;;3.50;2.60;;;;;;;27.98;33.83;100786.39;106352;1270;63549;-79
2022/07/09 11:06:46;;;;;;;5.90;2.90;;;;;;;27.95;33.81;100791.38;106453;1271;60053;-83
2022/07/09 11:09:17;;;;;;;4.20;2.90;;;;;;;28.07;33.37;100791.95;107464;1261;63635;-88
2022/07/09 11:11:49;;;;;;;4.90;2.30;;;;;;;27.80;33.65;100771.42;107288;1264;58217;-83
2022/07/09 11:14:19;;;;;;;8.10;3.00;;;;;;;27.88;33.98;100789.68;106689;1270;58035;-80
2022/07/09 11:17:00;;;;;;;4.10;2.90;;;;;;;27.69;34.72;100799.83;106086;1270;63729;-83
2022/07/09 11:19:30;;;;;;;6.20;3.20;;;;;;;27.96;34.03;100800.22;106204;1270;71261;-82
2022/07/09 11:22:03;;;;;;;4.60;3.10;;;;;;;27.85;34.47;100796.45;106009;1270;72220;-82
2022/07/09 11:24:32;;;;;;;11.00;2.90;;;;;;;27.99;34.40;100791.63;105790;1270;63947;-79
2022/07/09 11:27:06;;;;;;;6.20;3.10;;;;;;;28.49;33.59;100785.05;105668;1270;60379;-84
2022/07/09 11:29:37;;;;;;;5.40;2.70;;;;;;;29.11;32.65;100785.58;106820;1270;62669;-83
2022/07/09 11:32:06;;;;;;;8.10;2.50;;;;;;;29.67;31.29;100799.89;106585;1269;74452;-79
2022/07/09 11:34:35;;;;;;;5.90;3.10;;;;;;;29.37;31.02;100799.77;106101;1270;71677;-81
2022/07/09 11:37:05;;;;;;;5.30;2.90;;;;;;;28.59;32.09;100789.73;106142;1270;70311;-79